地図

経路データ

SID SEASON NUMBER BASIN SUBBASIN NAME ISO_TIME NATURE LAT LON WMO_WIND WMO_PRES WMO_AGENCY TRACK_TYPE DIST2LAND LANDFALL IFLAG USA_AGENCY USA_ATCF_ID USA_LAT USA_LON USA_RECORD USA_STATUS USA_WIND USA_PRES USA_SSHS USA_R34_NE USA_R34_SE USA_R34_SW USA_R34_NW USA_R50_NE USA_R50_SE USA_R50_SW USA_R50_NW USA_R64_NE USA_R64_SE USA_R64_SW USA_R64_NW USA_POCI USA_ROCI USA_RMW USA_EYE TOKYO_LAT TOKYO_LON TOKYO_GRADE TOKYO_WIND TOKYO_PRES TOKYO_R50_DIR TOKYO_R50_LONG TOKYO_R50_SHORT TOKYO_R30_DIR TOKYO_R30_LONG TOKYO_R30_SHORT TOKYO_LAND CMA_LAT CMA_LON CMA_CAT CMA_WIND CMA_PRES HKO_LAT HKO_LON HKO_CAT HKO_WIND HKO_PRES NEWDELHI_LAT NEWDELHI_LON NEWDELHI_GRADE NEWDELHI_WIND NEWDELHI_PRES NEWDELHI_CI NEWDELHI_DP NEWDELHI_POCI REUNION_LAT REUNION_LON REUNION_TYPE REUNION_WIND REUNION_PRES REUNION_TNUM REUNION_CI REUNION_RMW REUNION_R34_NE REUNION_R34_SE REUNION_R34_SW REUNION_R34_NW REUNION_R50_NE REUNION_R50_SE REUNION_R50_SW REUNION_R50_NW REUNION_R64_NE REUNION_R64_SE REUNION_R64_SW REUNION_R64_NW BOM_LAT BOM_LON BOM_TYPE BOM_WIND BOM_PRES BOM_TNUM BOM_CI BOM_RMW BOM_R34_NE BOM_R34_SE BOM_R34_SW BOM_R34_NW BOM_R50_NE BOM_R50_SE BOM_R50_SW BOM_R50_NW BOM_R64_NE BOM_R64_SE BOM_R64_SW BOM_R64_NW BOM_ROCI BOM_POCI BOM_EYE BOM_POS_METHOD BOM_PRES_METHOD NADI_LAT NADI_LON NADI_CAT NADI_WIND NADI_PRES WELLINGTON_LAT WELLINGTON_LON WELLINGTON_WIND WELLINGTON_PRES DS824_LAT DS824_LON DS824_STAGE DS824_WIND DS824_PRES TD9636_LAT TD9636_LON TD9636_STAGE TD9636_WIND TD9636_PRES TD9635_LAT TD9635_LON TD9635_WIND TD9635_PRES TD9635_ROCI NEUMANN_LAT NEUMANN_LON NEUMANN_CLASS NEUMANN_WIND NEUMANN_PRES MLC_LAT MLC_LON MLC_CLASS MLC_WIND MLC_PRES USA_GUST BOM_GUST BOM_GUST_PER REUNION_GUST REUNION_GUST_PER USA_SEAHGT USA_SEARAD_NE USA_SEARAD_SE USA_SEARAD_SW USA_SEARAD_NW STORM_SPEED STORM_DIR
1967187N10264 1967 47 EP MM DENISE 1967-07-06 00:00:00 TS 10.2000 -96.3000 25 hurdat_epa main 605 582 O________OO___ hurdat_epa EP041967 10.2000 -96.3000 TD 25 -1 10.2000 -96.3000 TC 25 10.2000 -96.3000 1 15 290
1967187N10264 1967 47 EP MM DENISE 1967-07-06 03:00:00 TS 10.4542 -96.9965 main 572 559 P________PP___ EP041967 10.4629 -97.0047 TD 25 -1 10.4629 -97.0047 TC 25 10.4193 -96.9639 1 15 290
1967187N10264 1967 47 EP MM DENISE 1967-07-06 06:00:00 TS 10.6881 -97.6885 25 hurdat_epa main 561 555 O________OP___ hurdat_epa EP041967 10.7000 -97.7000 TD 25 -1 10.7000 -97.7000 TC 25 10.6405 -97.6425 1 14 288
1967187N10264 1967 47 EP MM DENISE 1967-07-06 09:00:00 TS 10.8931 -98.3782 main 561 558 P________PP___ EP041967 10.8997 -98.3852 TD 25 -1 10.8997 -98.3852 TC 25 10.8664 -98.3498 1 14 287
1967187N10264 1967 47 EP MM DENISE 1967-07-06 12:00:00 TS 11.1000 -99.1000 25 hurdat_epa main 566 561 O________OO___ hurdat_epa EP041967 11.1000 -99.1000 TD 25 -1 11.1000 -99.1000 TC 25 11.1000 -99.1000 1 16 287
1967187N10264 1967 47 EP MM DENISE 1967-07-06 15:00:00 TS 11.3482 -99.8879 main 573 562 P________PP___ EP041967 11.3499 -99.8850 TD 25 -1 11.3499 -99.8850 TC 25 11.3415 -99.8994 1 17 288
1967187N10264 1967 47 EP MM DENISE 1967-07-06 18:00:00 TS 11.5961 -100.704 25 hurdat_epa main 572 571 O________OP___ hurdat_epa EP041967 11.6000 -100.700 TD 25 -1 11.6000 -100.700 TC 25 11.5804 -100.722 1 17 286
1967187N10264 1967 47 EP MM DENISE 1967-07-06 21:00:00 TS 11.8128 -101.531 main 581 578 P________PP___ EP041967 11.8150 -101.530 TD 25 -1 11.8150 -101.530 TC 25 11.8040 -101.534 1 16 285
1967187N10264 1967 47 EP MM DENISE 1967-07-07 00:00:00 TS 12.0000 -102.300 25 hurdat_epa main 596 596 O________OO___ hurdat_epa EP041967 12.0000 -102.300 TD 25 -1 12.0000 -102.300 TC 25 12.0000 -102.300 1 14 284
1967187N10264 1967 47 EP MM DENISE 1967-07-07 03:00:00 TS 12.1614 -102.932 main 602 602 P________PP___ EP041967 12.1646 -102.923 TD 25 -1 12.1646 -102.923 TC 25 12.1486 -102.972 1 12 284
1967187N10264 1967 47 EP MM DENISE 1967-07-07 06:00:00 TS 12.2942 -103.519 25 hurdat_epa main 616 616 O________OP___ hurdat_epa EP041967 12.3000 -103.500 TD 25 -1 12.3000 -103.500 TC 25 12.2710 -103.596 1 12 281
1967187N10264 1967 47 EP MM DENISE 1967-07-07 09:00:00 TS 12.3965 -104.154 main 641 641 P________PP___ EP041967 12.3999 -104.143 TD 25 -1 12.3999 -104.143 TC 25 12.3831 -104.197 1 13 279
1967187N10264 1967 47 EP MM DENISE 1967-07-07 12:00:00 TS 12.5000 -104.800 25 hurdat_epa main 659 659 O________OO___ hurdat_epa EP041967 12.5000 -104.800 TD 25 -1 12.5000 -104.800 TC 25 12.5000 -104.800 1 13 281
1967187N10264 1967 47 EP MM DENISE 1967-07-07 15:00:00 TS 12.6400 -105.450 main 673 662 P________PP___ EP041967 12.6423 -105.450 TD 25 -1 12.6423 -105.450 TC 25 12.6304 -105.451 1 13 283
1967187N10264 1967 47 EP MM DENISE 1967-07-07 18:00:00 TS 12.7939 -106.102 25 hurdat_epa main 675 675 O________OP___ hurdat_epa EP041967 12.8000 -106.100 TD 25 -1 12.8000 -106.100 TC 25 12.7697 -106.108 1 13 283
1967187N10264 1967 47 EP MM DENISE 1967-07-07 21:00:00 TS 12.9387 -106.758 main 700 690 P________PP___ EP041967 12.9424 -106.758 TD 25 -1 12.9424 -106.758 TC 25 12.9241 -106.761 1 13 284
1967187N10264 1967 47 EP MM DENISE 1967-07-08 00:00:00 TS 13.1000 -107.400 25 hurdat_epa main 716 716 O________OO___ hurdat_epa EP041967 13.1000 -107.400 TD 25 -1 13.1000 -107.400 TC 25 13.1000 -107.400 1 13 286
1967187N10264 1967 47 EP MM DENISE 1967-07-08 03:00:00 TS 13.2860 -108.007 main 738 738 P________PP___ EP041967 13.2848 -108.008 TD 25 -1 13.2848 -108.008 TC 25 13.2905 -108.007 1 12 289
1967187N10264 1967 47 EP MM DENISE 1967-07-08 06:00:00 TS 13.5008 -108.600 25 hurdat_epa main 755 752 O________OP___ hurdat_epa EP041967 13.5000 -108.600 TD 25 -1 13.5000 -108.600 TC 25 13.5040 -108.601 1 12 291
1967187N10264 1967 47 EP MM DENISE 1967-07-08 09:00:00 TS 13.7359 -109.193 main 773 771 P________PP___ EP041967 13.7348 -109.193 TD 25 -1 13.7348 -109.193 TC 25 13.7405 -109.194 1 13 293
1967187N10264 1967 47 EP MM DENISE 1967-07-08 12:00:00 TS 14.0000 -109.800 25 hurdat_epa main 788 787 O________OO___ hurdat_epa EP041967 14.0000 -109.800 TD 25 -1 14.0000 -109.800 TC 25 14.0000 -109.800 1 13 295
1967187N10264 1967 47 EP MM DENISE 1967-07-08 15:00:00 TS 14.2962 -110.452 main 817 817 P________PP___ EP041967 14.2924 -110.443 TD 25 -1 14.2924 -110.443 TC 25 14.3114 -110.487 1 14 295
1967187N10264 1967 47 EP MM DENISE 1967-07-08 18:00:00 TS 14.6077 -111.116 25 hurdat_epa main 839 839 O________OP___ hurdat_epa EP041967 14.6000 -111.100 TD 25 -1 14.6000 -111.100 TC 25 14.6383 -111.181 1 15 296
1967187N10264 1967 47 EP MM DENISE 1967-07-08 21:00:00 TS 14.9333 -111.809 main 874 867 P________PP___ EP041967 14.9302 -111.802 TD 32 -1 14.9302 -111.802 TC 32 14.9460 -111.834 1 14 296
1967187N10264 1967 47 EP MM DENISE 1967-07-09 00:00:00 TS 15.2000 -112.400 40 hurdat_epa main 897 889 O________OO___ hurdat_epa EP041967 15.2000 -112.400 TS 40 0 15.2000 -112.400 TC 40 15.2000 -112.400 2 10 294
1967187N10264 1967 47 EP MM DENISE 1967-07-09 03:00:00 TS 15.3325 -112.756 main 899 888 P________PP___ EP041967 15.3296 -112.745 TS 42 0 15.3296 -112.745 TC 42 15.3440 -112.799 2 6 289
1967187N10264 1967 47 EP MM DENISE 1967-07-09 06:00:00 TS 15.4072 -113.022 45 hurdat_epa main 896 893 O________OP___ hurdat_epa EP041967 15.4000 -113.000 TS 45 0 15.4000 -113.000 TC 45 15.4358 -113.112 2 6 286
1967187N10264 1967 47 EP MM DENISE 1967-07-09 09:00:00 TS 15.4899 -113.341 main 897 897 P________PP___ EP041967 15.4849 -113.328 TS 45 0 15.4849 -113.328 TC 45 15.5098 -113.393 2 7 286
1967187N10264 1967 47 EP MM DENISE 1967-07-09 12:00:00 TS 15.6000 -113.700 45 hurdat_epa main 904 898 O________OO___ hurdat_epa EP041967 15.6000 -113.700 TS 45 0 15.6000 -113.700 TC 45 15.6000 -113.700 2 8 292
1967187N10264 1967 47 EP MM DENISE 1967-07-09 15:00:00 TS 15.7861 -114.121 main 903 903 P________PP___ EP041967 15.7925 -114.135 TS 45 0 15.7925 -114.135 TC 45 15.7608 -114.065 2 9 295
1967187N10264 1967 47 EP MM DENISE 1967-07-09 18:00:00 TS 15.9882 -114.575 45 hurdat_epa main 909 905 O________OP___ hurdat_epa EP041967 16.0000 -114.600 TS 45 0 16.0000 -114.600 TC 45 15.9412 -114.473 2 9 294
1967187N10264 1967 47 EP MM DENISE 1967-07-09 21:00:00 TS 16.1508 -114.993 main 914 914 P________PP___ EP041967 16.1571 -115.005 TS 45 0 16.1571 -115.005 TC 45 16.1260 -114.944 2 9 289
1967187N10264 1967 47 EP MM DENISE 1967-07-10 00:00:00 TS 16.3000 -115.500 45 hurdat_epa main 936 936 O________OO___ hurdat_epa EP041967 16.3000 -115.500 TS 45 0 16.3000 -115.500 TC 45 16.3000 -115.500 2 12 285
1967187N10264 1967 47 EP MM DENISE 1967-07-10 03:00:00 TS 16.4576 -116.206 main 965 965 P________PP___ EP041967 16.4576 -116.205 TS 45 0 16.4576 -116.205 TC 45 16.4572 -116.212 2 15 282
1967187N10264 1967 47 EP MM DENISE 1967-07-10 06:00:00 TS 16.5995 -117.000 45 hurdat_epa main 1016 1016 O________OP___ hurdat_epa EP041967 16.6000 -117.000 TS 45 0 16.6000 -117.000 TC 45 16.5973 -116.999 2 15 280
1967187N10264 1967 47 EP MM DENISE 1967-07-10 09:00:00 TS 16.7148 -117.793 main 1070 1070 P________PP___ EP041967 16.7151 -117.795 TS 45 0 16.7151 -117.795 TC 45 16.7135 -117.787 2 15 278
1967187N10264 1967 47 EP MM DENISE 1967-07-10 12:00:00 TS 16.8000 -118.500 45 hurdat_epa main 1105 1105 O________OO___ hurdat_epa EP041967 16.8000 -118.500 TS 45 0 16.8000 -118.500 TC 45 16.8000 -118.500 2 12 277
1967187N10264 1967 47 EP MM DENISE 1967-07-10 15:00:00 TS 16.8628 -118.997 main 1128 1128 P________PP___ EP041967 16.8645 -118.995 TS 45 0 16.8645 -118.995 TC 45 16.8558 -119.004 2 9 276
1967187N10264 1967 47 EP MM DENISE 1967-07-10 18:00:00 TS 16.8970 -119.406 45 hurdat_epa main 1155 1155 O________OP___ hurdat_epa EP041967 16.9000 -119.400 TS 45 0 16.9000 -119.400 TC 45 16.8848 -119.431 2 8 273
1967187N10264 1967 47 EP MM DENISE 1967-07-10 21:00:00 TS 16.9050 -119.824 main 1183 1183 P________PP___ EP041967 16.9072 -119.820 TS 45 0 16.9072 -119.820 TC 45 16.8965 -119.842 2 9 270
1967187N10264 1967 47 EP MM DENISE 1967-07-11 00:00:00 TS 16.9000 -120.300 45 hurdat_epa main 1218 1218 O________OO___ hurdat_epa EP041967 16.9000 -120.300 TS 45 0 16.9000 -120.300 TC 45 16.9000 -120.300 2 10 270
1967187N10264 1967 47 EP MM DENISE 1967-07-11 03:00:00 TS 16.9015 -120.914 main 1263 1263 P________PP___ EP041967 16.9000 -120.920 TS 45 0 16.9000 -120.920 TC 45 16.9073 -120.889 2 12 270
1967187N10264 1967 47 EP MM DENISE 1967-07-11 06:00:00 TS 16.9015 -121.587 45 hurdat_epa main 1315 1315 O________OP___ hurdat_epa EP041967 16.9000 -121.600 TS 45 0 16.9000 -121.600 TC 45 16.9075 -121.533 2 13 270
1967187N10264 1967 47 EP MM DENISE 1967-07-11 09:00:00 TS 16.9006 -122.236 main 1362 1362 P________PP___ EP041967 16.8997 -122.243 TS 45 0 16.8997 -122.243 TC 45 16.9040 -122.211 2 13 270
1967187N10264 1967 47 EP MM DENISE 1967-07-11 12:00:00 TS 16.9000 -122.900 45 hurdat_epa main 1418 1418 O________OO___ hurdat_epa EP041967 16.9000 -122.900 TS 45 0 16.9000 -122.900 TC 45 16.9000 -122.900 2 13 270
1967187N10264 1967 47 EP MM DENISE 1967-07-11 15:00:00 TS 16.8999 -123.596 main 1476 1476 P________PP___ EP041967 16.8999 -123.600 TS 45 0 16.8999 -123.600 TC 45 16.8997 -123.580 2 13 270
1967187N10264 1967 47 EP MM DENISE 1967-07-11 18:00:00 TS 16.8999 -124.293 45 hurdat_epa main 1535 1535 O________OP___ hurdat_epa EP041967 16.9000 -124.300 TS 45 0 16.9000 -124.300 TC 45 16.8997 -124.265 2 13 270
1967187N10264 1967 47 EP MM DENISE 1967-07-11 21:00:00 TS 16.8998 -124.960 main 1584 1584 P________PP___ EP041967 16.8998 -124.965 TS 45 0 16.8998 -124.965 TC 45 16.8998 -124.943 2 13 270
1967187N10264 1967 47 EP MM DENISE 1967-07-12 00:00:00 TS 16.9000 -125.600 45 hurdat_epa main 1624 1624 O________OO___ hurdat_epa EP041967 16.9000 -125.600 TS 45 0 16.9000 -125.600 TC 45 16.9000 -125.600 2 12 270
1967187N10264 1967 47 EP MM DENISE 1967-07-12 03:00:00 TS 16.8996 -126.209 main 1666 1666 P________PP___ EP041967 16.8998 -126.208 TS 45 0 16.8998 -126.208 TC 45 16.8991 -126.217 2 12 270
1967187N10264 1967 47 EP MM DENISE 1967-07-12 06:00:00 TS 16.8998 -126.803 45 hurdat_epa main 1709 1709 O________OP___ hurdat_epa EP041967 16.9000 -126.800 TS 45 0 16.9000 -126.800 TC 45 16.8988 -126.815 2 11 270
1967187N10264 1967 47 EP MM DENISE 1967-07-12 09:00:00 TS 16.8997 -127.401 main 1753 1753 P________PP___ EP041967 16.8998 -127.400 TS 45 0 16.8998 -127.400 TC 45 16.8991 -127.405 2 11 270
1967187N10264 1967 47 EP MM DENISE 1967-07-12 12:00:00 TS 16.9000 -128.000 45 hurdat_epa main 1798 1798 O________OO___ hurdat_epa EP041967 16.9000 -128.000 TS 45 0 16.9000 -128.000 TC 45 16.9000 -128.000 2 11 270
1967187N10264 1967 47 EP MM DENISE 1967-07-12 15:00:00 TS 16.8988 -128.593 main 1844 1844 P________PP___ EP041967 16.8998 -128.593 TS 45 0 16.8998 -128.593 TC 45 16.8949 -128.594 2 11 270
1967187N10264 1967 47 EP MM DENISE 1967-07-12 18:00:00 TS 16.8982 -129.200 45 hurdat_epa main 1891 1891 O________OP___ hurdat_epa EP041967 16.9000 -129.200 TS 45 0 16.9000 -129.200 TC 45 16.8910 -129.198 2 12 270
1967187N10264 1967 47 EP MM DENISE 1967-07-12 21:00:00 TS 16.8981 -129.828 main 1939 1939 P________PP___ EP041967 16.8997 -129.828 TS 45 0 16.8997 -129.828 TC 45 16.8916 -129.828 2 12 270
1967187N10264 1967 47 EP MM DENISE 1967-07-13 00:00:00 TS 16.9000 -130.500 45 hurdat_epa main 1996 1996 O________OO___ hurdat_epa EP041967 16.9000 -130.500 TS 45 0 16.9000 -130.500 TC 45 16.9000 -130.500 2 13 270
1967187N10264 1967 47 EP MM DENISE 1967-07-13 03:00:00 TS 16.8997 -131.223 main 2053 2053 P________PP___ EP041967 16.8923 -131.228 TS 45 0 16.8923 -131.228 TC 45 16.9291 -131.203 2 14 271
1967187N10264 1967 47 EP MM DENISE 1967-07-13 06:00:00 TS 16.9127 -131.990 45 hurdat_epa main 2120 2120 O________OP___ hurdat_epa EP041967 16.9000 -132.000 TS 45 0 16.9000 -132.000 TC 45 16.9635 -131.952 2 15 272
1967187N10264 1967 47 EP MM DENISE 1967-07-13 09:00:00 TS 16.9579 -132.772 main 2181 2181 P________PP___ EP041967 16.9496 -132.777 TS 45 0 16.9496 -132.777 TC 45 16.9912 -132.750 2 15 273
1967187N10264 1967 47 EP MM DENISE 1967-07-13 12:00:00 TS 17.0000 -133.600 45 hurdat_epa main 2250 2171 O________OO___ hurdat_epa EP041967 17.0000 -133.600 TS 45 0 17.0000 -133.600 TC 45 17.0000 -133.600 2 16 272
1967187N10264 1967 47 EP MM DENISE 1967-07-13 15:00:00 TS 17.0143 -134.473 main 2160 2066 P________PP___ EP041967 17.0221 -134.470 TS 45 0 17.0221 -134.470 TC 45 16.9829 -134.484 2 17 270
1967187N10264 1967 47 EP MM DENISE 1967-07-13 18:00:00 TS 16.9887 -135.404 45 hurdat_epa main 2066 1974 O________OP___ hurdat_epa EP041967 17.0000 -135.400 TS 45 0 17.0000 -135.400 TC 45 16.9437 -135.418 2 18 267
1967187N10264 1967 47 EP MM DENISE 1967-07-13 21:00:00 TS 16.9082 -136.381 main 1964 1872 P________PP___ EP041967 16.9146 -136.378 TS 45 0 16.9146 -136.378 TC 45 16.8826 -136.393 2 19 264
1967187N10264 1967 47 EP MM DENISE 1967-07-14 00:00:00 TS 16.8000 -137.400 45 hurdat_epa main 1862 1760 O________OO___ hurdat_epa EP041967 16.8000 -137.400 TS 45 0 16.8000 -137.400 TC 45 16.8000 -137.400 2 20 264
1967187N10264 1967 47 EP MM DENISE 1967-07-14 03:00:00 TS 16.7030 -138.433 main 1760 1659 P________PP___ EP041967 16.7071 -138.442 TS 45 0 16.7071 -138.442 TC 45 16.6867 -138.398 2 20 264
1967187N10264 1967 47 EP MM DENISE 1967-07-14 06:00:00 TS 16.5910 -139.485 45 hurdat_epa main 1649 1548 O________OP___ hurdat_epa EP041967 16.6000 -139.500 TS 45 0 16.6000 -139.500 TC 45 16.5548 -139.426 2 20 263
1967187N10264 1967 47 EP CP DENISE 1967-07-14 09:00:00 TS 16.4434 -140.520 main 1551 1451 P________PP___ EP041967 16.4491 -140.528 TS 45 0 16.4491 -140.528 TC 45 16.4207 -140.491 2 21 262
1967187N10264 1967 47 EP CP DENISE 1967-07-14 12:00:00 TS 16.3000 -141.600 45 hurdat_epa main 1441 1332 O________OO___ hurdat_epa EP041967 16.3000 -141.600 TS 45 0 16.3000 -141.600 TC 45 16.3000 -141.600 2 22 263
1967187N10264 1967 47 EP CP DENISE 1967-07-14 15:00:00 TS 16.1891 -142.776 main 1322 1214 P________PP___ EP041967 16.1847 -142.777 TS 45 0 16.1847 -142.777 TC 45 16.2044 -142.756 2 23 265
1967187N10264 1967 47 EP CP DENISE 1967-07-14 18:00:00 TS 16.1039 -143.993 45 hurdat_epa main 1204 1089 O________OP___ hurdat_epa EP041967 16.1000 -144.000 TS 45 0 16.1000 -144.000 TC 45 16.1287 -143.949 2 24 266
1967187N10264 1967 47 EP CP DENISE 1967-07-14 21:00:00 TS 16.0375 -145.220 main 1089 981 P________PP___ EP041967 16.0350 -145.245 TS 45 0 16.0350 -145.245 TC 45 16.0635 -145.169 2 23 267
1967187N10264 1967 47 EP CP DENISE 1967-07-15 00:00:00 TS 16.0000 -146.362 45 hurdat_epa main 971 885 O________OO___ hurdat_epa EP041967 16.0000 -146.400 TS 45 0 16.0000 -146.400 TC 45 16.0000 -146.400 2 20 269
1967187N10264 1967 47 EP CP DENISE 1967-07-15 03:00:00 TS 15.9919 -147.335 main 885 810 P________P____ EP041967 15.9919 -147.382 TS 35 0 15.9919 -147.382 TC 35 2 17 270
1967187N10264 1967 47 EP CP DENISE 1967-07-15 06:00:00 TS 16.0000 -148.160 25 hurdat_epa main 801 746 O________O____ hurdat_epa EP041967 16.0000 -148.200 TD 25 -1 16.0000 -148.200 TC 25 2 15 270
1967187N10264 1967 47 EP CP DENISE 1967-07-15 09:00:00 TS 15.9995 -148.877 main 737 684 P________P____ EP041967 15.9994 -148.887 TD 25 -1 15.9994 -148.887 TC 25 2 13 270
1967187N10264 1967 47 EP CP DENISE 1967-07-15 12:00:00 TS 16.0000 -149.520 25 hurdat_epa main 684 633 O________O____ hurdat_epa EP041967 16.0000 -149.500 TD 25 -1 16.0000 -149.500 TC 25 13 270
1967187N10264 1967 47 EP CP DENISE 1967-07-15 15:00:00 TS 15.9998 -150.182 main 625 576 P________P____ EP041967 15.9999 -150.158 TD 25 -1 15.9999 -150.158 TC 25 13 270
1967187N10264 1967 47 EP CP DENISE 1967-07-15 18:00:00 TS 16.0000 -150.820 25 hurdat_epa main 576 538 O________O____ hurdat_epa EP041967 16.0000 -150.800 TD 25 -1 16.0000 -150.800 TC 25 11 270
1967187N10264 1967 47 EP CP DENISE 1967-07-15 21:00:00 TS 15.9992 -151.375 main 530 487 P________P____ EP041967 15.9992 -151.348 TD 25 -1 15.9992 -151.348 TC 25 12 270
1967187N10264 1967 47 EP CP DENISE 1967-07-16 00:00:00 TS 16.0000 -152.020 25 hurdat_epa main 487 431 O________O____ hurdat_epa EP041967 16.0000 -152.000 TD 25 -1 16.0000 -152.000 TC 25 15 270
1967187N10264 1967 47 EP CP DENISE 1967-07-16 03:00:00 TS 16.0001 -152.912 main 431 376 P________P____ EP041967 16.0003 -152.940 TD 25 -1 16.0003 -152.940 TC 25 18 270
1967187N10264 1967 47 EP CP DENISE 1967-07-16 06:00:00 TS 16.0000 -153.920 25 hurdat_epa main 376 338 O________O____ hurdat_epa EP041967 16.0000 -154.000 TD 25 -1 16.0000 -154.000 TC 25 19 270
1967187N10264 1967 47 EP CP DENISE 1967-07-16 09:00:00 TS 15.9996 -154.900 main 335 324 P________P____ EP041967 15.9995 -155.000 TD 25 -1 15.9995 -155.000 TC 25 19 270
1967187N10264 1967 47 EP CP DENISE 1967-07-16 12:00:00 TS 16.0000 -155.900 25 hurdat_epa main 325 325 O________O____ hurdat_epa EP041967 16.0000 -156.000 TD 25 -1 16.0000 -156.000 TC 25 19 270
1967187N10264 1967 47 EP CP DENISE 1967-07-16 15:00:00 TS 15.9996 -156.917 main 348 348 P________P____ EP041967 15.9995 -157.000 TD 25 -1 15.9995 -157.000 TC 25 20 270
1967187N10264 1967 47 EP CP DENISE 1967-07-16 18:00:00 TS 16.0000 -157.940 25 hurdat_epa main 399 399 O________O____ hurdat_epa EP041967 16.0000 -158.000 TD 25 -1 16.0000 -158.000 TC 25 20 270
1967187N10264 1967 47 EP CP DENISE 1967-07-16 21:00:00 TS 15.9997 -158.965 main 477 477 P________P____ EP041967 15.9997 -159.015 TD 25 -1 15.9997 -159.015 TC 25 19 270
1967187N10264 1967 47 EP CP DENISE 1967-07-17 00:00:00 TS 16.0000 -159.960 25 hurdat_epa main 556 556 O________O____ hurdat_epa EP041967 16.0000 -160.000 TD 25 -1 16.0000 -160.000 TC 25 19 270
1967187N10264 1967 47 EP CP DENISE 1967-07-17 03:00:00 TS 15.9996 -160.904 main 633 633 P________P____ EP041967 15.9995 -160.922 TD 25 -1 15.9995 -160.922 TC 25 18 270
1967187N10264 1967 47 EP CP DENISE 1967-07-17 06:00:00 TS 16.0000 -161.800 25 hurdat_epa main 703 703 O________O____ hurdat_epa EP041967 16.0000 -161.800 TD 25 -1 16.0000 -161.800 TC 25 17 270
1967187N10264 1967 47 EP CP DENISE 1967-07-17 09:00:00 TS 15.9995 -162.660 main 737 737 P________P____ EP041967 15.9996 -162.658 TD 25 -1 15.9996 -162.658 TC 25 16 270
1967187N10264 1967 47 EP CP DENISE 1967-07-17 12:00:00 TS 16.0000 -163.500 25 hurdat_epa main 775 775 O________O____ hurdat_epa EP041967 16.0000 -163.500 TD 25 -1 16.0000 -163.500 TC 25 16 270
1967187N10264 1967 47 EP CP DENISE 1967-07-17 15:00:00 TS 15.9996 -164.343 main 821 821 P________P____ EP041967 15.9996 -164.343 TD 25 -1 15.9996 -164.343 TC 25 16 270
1967187N10264 1967 47 EP CP DENISE 1967-07-17 18:00:00 TS 16.0000 -165.200 25 hurdat_epa main 878 878 O________O____ hurdat_epa EP041967 16.0000 -165.200 TD 25 -1 16.0000 -165.200 TC 25 17 270
1967187N10264 1967 47 EP CP DENISE 1967-07-17 21:00:00 TS 16.0008 -166.090 main 942 942 P________P____ EP041967 16.0008 -166.090 TD 25 -1 16.0008 -166.090 TC 25 17 270
1967187N10264 1967 47 EP CP DENISE 1967-07-18 00:00:00 TS 16.0000 -167.000 25 hurdat_epa main 1011 O________O____ hurdat_epa EP041967 16.0000 -167.000 TD 25 -1 16.0000 -167.000 TC 25 18 270

IBTrACS Databaseについて

本データベースは、米国NOAAが公開する1842年以降の世界の熱帯低気圧のベストトラックデータアーカイブInternational Best Track Archive for Climate Stewardship (IBTrACS)を、ウェブで閲覧しやすい形式に変換したものです。

最終更新日:2021-12-01